sensor_id;sensor_type;location;lat;lon;timestamp;P1;durP1;ratioP1;P2;durP2;ratioP2
4508;SDS011;2267;48.816;9.230;2023-04-06T00:00:53;13.50;;;12.27;;
4508;SDS011;2267;48.816;9.230;2023-04-06T00:03:20;14.30;;;13.10;;
4508;SDS011;2267;48.816;9.230;2023-04-06T00:05:47;14.00;;;12.80;;
4508;SDS011;2267;48.816;9.230;2023-04-06T00:08:14;14.40;;;13.20;;
4508;SDS011;2267;48.816;9.230;2023-04-06T00:10:41;13.03;;;11.77;;
4508;SDS011;2267;48.816;9.230;2023-04-06T00:13:08;14.07;;;12.90;;
4508;SDS011;2267;48.816;9.230;2023-04-06T00:15:36;13.87;;;12.70;;
4508;SDS011;2267;48.816;9.230;2023-04-06T00:18:03;14.47;;;13.27;;
4508;SDS011;2267;48.816;9.230;2023-04-06T00:20:30;14.80;;;13.60;;
4508;SDS011;2267;48.816;9.230;2023-04-06T00:22:57;15.10;;;13.80;;
4508;SDS011;2267;48.816;9.230;2023-04-06T00:25:23;14.20;;;13.00;;
4508;SDS011;2267;48.816;9.230;2023-04-06T00:27:50;14.43;;;13.20;;
4508;SDS011;2267;48.816;9.230;2023-04-06T00:30:17;16.03;;;14.40;;
4508;SDS011;2267;48.816;9.230;2023-04-06T00:32:44;15.97;;;14.67;;
4508;SDS011;2267;48.816;9.230;2023-04-06T00:35:11;15.40;;;14.07;;
4508;SDS011;2267;48.816;9.230;2023-04-06T00:37:38;15.00;;;13.73;;
4508;SDS011;2267;48.816;9.230;2023-04-06T00:40:05;15.00;;;13.80;;
4508;SDS011;2267;48.816;9.230;2023-04-06T00:42:32;14.30;;;12.80;;
4508;SDS011;2267;48.816;9.230;2023-04-06T00:44:59;13.53;;;12.30;;
4508;SDS011;2267;48.816;9.230;2023-04-06T00:47:27;14.33;;;12.90;;
4508;SDS011;2267;48.816;9.230;2023-04-06T00:49:54;13.37;;;12.17;;
4508;SDS011;2267;48.816;9.230;2023-04-06T00:52:21;13.30;;;12.20;;
4508;SDS011;2267;48.816;9.230;2023-04-06T00:54:48;14.23;;;12.93;;
4508;SDS011;2267;48.816;9.230;2023-04-06T00:57:16;13.17;;;12.17;;
4508;SDS011;2267;48.816;9.230;2023-04-06T00:59:44;12.00;;;11.10;;
4508;SDS011;2267;48.816;9.230;2023-04-06T01:02:11;12.20;;;10.97;;
4508;SDS011;2267;48.816;9.230;2023-04-06T01:04:38;10.00;;;9.10;;
4508;SDS011;2267;48.816;9.230;2023-04-06T01:07:05;12.40;;;11.30;;
4508;SDS011;2267;48.816;9.230;2023-04-06T01:09:33;12.37;;;11.17;;
4508;SDS011;2267;48.816;9.230;2023-04-06T01:12:00;12.67;;;11.57;;
4508;SDS011;2267;48.816;9.230;2023-04-06T01:14:27;13.53;;;12.27;;
4508;SDS011;2267;48.816;9.230;2023-04-06T01:16:54;12.70;;;11.53;;
4508;SDS011;2267;48.816;9.230;2023-04-06T01:19:24;12.13;;;11.23;;
4508;SDS011;2267;48.816;9.230;2023-04-06T01:21:50;12.03;;;10.93;;
4508;SDS011;2267;48.816;9.230;2023-04-06T01:24:19;11.60;;;10.70;;
4508;SDS011;2267;48.816;9.230;2023-04-06T01:26:47;12.60;;;11.30;;
4508;SDS011;2267;48.816;9.230;2023-04-06T01:29:14;12.00;;;10.77;;
4508;SDS011;2267;48.816;9.230;2023-04-06T01:31:41;11.43;;;10.53;;
4508;SDS011;2267;48.816;9.230;2023-04-06T01:34:08;11.80;;;10.80;;
4508;SDS011;2267;48.816;9.230;2023-04-06T01:36:35;11.73;;;10.63;;
4508;SDS011;2267;48.816;9.230;2023-04-06T01:39:02;12.17;;;11.27;;
4508;SDS011;2267;48.816;9.230;2023-04-06T01:41:29;11.60;;;10.67;;
4508;SDS011;2267;48.816;9.230;2023-04-06T01:43:55;11.70;;;10.80;;
4508;SDS011;2267;48.816;9.230;2023-04-06T01:46:22;12.37;;;11.30;;
4508;SDS011;2267;48.816;9.230;2023-04-06T01:48:49;11.13;;;10.10;;
4508;SDS011;2267;48.816;9.230;2023-04-06T01:51:16;11.57;;;10.53;;
4508;SDS011;2267;48.816;9.230;2023-04-06T01:53:43;11.90;;;10.67;;
4508;SDS011;2267;48.816;9.230;2023-04-06T01:56:10;12.37;;;11.37;;
4508;SDS011;2267;48.816;9.230;2023-04-06T01:58:37;12.10;;;11.00;;
4508;SDS011;2267;48.816;9.230;2023-04-06T02:01:04;12.33;;;11.23;;
4508;SDS011;2267;48.816;9.230;2023-04-06T02:03:31;11.70;;;10.70;;
4508;SDS011;2267;48.816;9.230;2023-04-06T02:05:57;13.33;;;12.03;;
4508;SDS011;2267;48.816;9.230;2023-04-06T02:08:24;12.33;;;11.33;;
4508;SDS011;2267;48.816;9.230;2023-04-06T02:10:51;12.80;;;11.70;;
4508;SDS011;2267;48.816;9.230;2023-04-06T02:13:18;13.00;;;11.80;;
4508;SDS011;2267;48.816;9.230;2023-04-06T02:15:45;11.40;;;10.50;;
4508;SDS011;2267;48.816;9.230;2023-04-06T02:18:12;10.50;;;9.70;;
4508;SDS011;2267;48.816;9.230;2023-04-06T02:20:39;12.20;;;11.07;;
4508;SDS011;2267;48.816;9.230;2023-04-06T02:23:05;12.07;;;11.07;;
4508;SDS011;2267;48.816;9.230;2023-04-06T02:25:32;11.37;;;10.27;;
4508;SDS011;2267;48.816;9.230;2023-04-06T02:27:59;11.53;;;10.63;;
4508;SDS011;2267;48.816;9.230;2023-04-06T02:30:27;11.10;;;10.30;;
4508;SDS011;2267;48.816;9.230;2023-04-06T02:32:55;11.83;;;10.83;;
4508;SDS011;2267;48.816;9.230;2023-04-06T02:35:22;12.20;;;11.00;;
4508;SDS011;2267;48.816;9.230;2023-04-06T02:37:49;12.40;;;11.23;;
4508;SDS011;2267;48.816;9.230;2023-04-06T02:40:16;12.50;;;11.30;;
4508;SDS011;2267;48.816;9.230;2023-04-06T02:42:43;14.20;;;12.90;;
4508;SDS011;2267;48.816;9.230;2023-04-06T02:45:09;12.93;;;11.93;;
4508;SDS011;2267;48.816;9.230;2023-04-06T02:47:36;13.07;;;11.97;;
4508;SDS011;2267;48.816;9.230;2023-04-06T02:50:03;13.83;;;12.70;;
4508;SDS011;2267;48.816;9.230;2023-04-06T02:52:31;14.87;;;13.40;;
4508;SDS011;2267;48.816;9.230;2023-04-06T02:54:58;13.17;;;12.07;;
4508;SDS011;2267;48.816;9.230;2023-04-06T02:57:25;14.43;;;13.20;;
4508;SDS011;2267;48.816;9.230;2023-04-06T02:59:52;13.67;;;12.47;;
4508;SDS011;2267;48.816;9.230;2023-04-06T03:02:18;12.53;;;11.30;;
4508;SDS011;2267;48.816;9.230;2023-04-06T03:04:45;12.20;;;11.23;;
4508;SDS011;2267;48.816;9.230;2023-04-06T03:07:13;12.70;;;11.47;;
4508;SDS011;2267;48.816;9.230;2023-04-06T03:09:40;13.53;;;12.20;;
4508;SDS011;2267;48.816;9.230;2023-04-06T03:12:07;14.70;;;13.10;;
4508;SDS011;2267;48.816;9.230;2023-04-06T03:14:35;13.20;;;12.20;;
4508;SDS011;2267;48.816;9.230;2023-04-06T03:17:02;12.97;;;11.83;;
4508;SDS011;2267;48.816;9.230;2023-04-06T03:19:29;13.60;;;12.40;;
4508;SDS011;2267;48.816;9.230;2023-04-06T03:21:55;13.50;;;12.30;;
4508;SDS011;2267;48.816;9.230;2023-04-06T03:24:22;13.90;;;12.63;;
4508;SDS011;2267;48.816;9.230;2023-04-06T03:26:49;15.13;;;13.83;;
4508;SDS011;2267;48.816;9.230;2023-04-06T03:29:16;12.57;;;11.50;;
4508;SDS011;2267;48.816;9.230;2023-04-06T03:31:43;15.47;;;14.27;;
4508;SDS011;2267;48.816;9.230;2023-04-06T03:34:10;14.27;;;12.97;;
4508;SDS011;2267;48.816;9.230;2023-04-06T03:36:37;14.30;;;13.00;;
4508;SDS011;2267;48.816;9.230;2023-04-06T03:39:03;15.17;;;13.80;;
4508;SDS011;2267;48.816;9.230;2023-04-06T03:41:31;16.33;;;14.83;;
4508;SDS011;2267;48.816;9.230;2023-04-06T03:43:58;15.83;;;14.47;;
4508;SDS011;2267;48.816;9.230;2023-04-06T03:46:25;16.10;;;14.80;;
4508;SDS011;2267;48.816;9.230;2023-04-06T03:48:52;16.70;;;15.20;;
4508;SDS011;2267;48.816;9.230;2023-04-06T03:51:19;17.13;;;15.43;;
4508;SDS011;2267;48.816;9.230;2023-04-06T03:53:45;15.67;;;14.37;;
4508;SDS011;2267;48.816;9.230;2023-04-06T03:56:12;17.00;;;15.50;;
4508;SDS011;2267;48.816;9.230;2023-04-06T03:58:39;16.17;;;14.70;;
4508;SDS011;2267;48.816;9.230;2023-04-06T04:01:06;15.83;;;14.53;;
4508;SDS011;2267;48.816;9.230;2023-04-06T04:03:33;15.67;;;14.37;;
4508;SDS011;2267;48.816;9.230;2023-04-06T04:06:00;16.83;;;15.33;;
4508;SDS011;2267;48.816;9.230;2023-04-06T04:08:27;16.53;;;15.10;;
4508;SDS011;2267;48.816;9.230;2023-04-06T04:10:53;16.80;;;15.30;;
4508;SDS011;2267;48.816;9.230;2023-04-06T04:13:20;18.23;;;16.47;;
4508;SDS011;2267;48.816;9.230;2023-04-06T04:15:47;16.07;;;14.70;;
4508;SDS011;2267;48.816;9.230;2023-04-06T04:18:14;16.07;;;14.67;;
4508;SDS011;2267;48.816;9.230;2023-04-06T04:20:41;17.90;;;16.07;;
4508;SDS011;2267;48.816;9.230;2023-04-06T04:23:10;18.20;;;16.60;;
4508;SDS011;2267;48.816;9.230;2023-04-06T04:25:37;17.10;;;15.70;;
4508;SDS011;2267;48.816;9.230;2023-04-06T04:28:04;17.47;;;16.00;;
4508;SDS011;2267;48.816;9.230;2023-04-06T04:30:31;16.20;;;14.27;;
4508;SDS011;2267;48.816;9.230;2023-04-06T04:32:58;16.30;;;14.73;;
4508;SDS011;2267;48.816;9.230;2023-04-06T04:35:24;16.53;;;15.00;;
4508;SDS011;2267;48.816;9.230;2023-04-06T04:37:52;17.63;;;14.87;;
4508;SDS011;2267;48.816;9.230;2023-04-06T04:40:19;16.90;;;14.00;;
4508;SDS011;2267;48.816;9.230;2023-04-06T04:42:47;14.53;;;13.20;;
4508;SDS011;2267;48.816;9.230;2023-04-06T04:45:15;15.47;;;14.13;;
4508;SDS011;2267;48.816;9.230;2023-04-06T04:47:41;15.40;;;13.90;;
4508;SDS011;2267;48.816;9.230;2023-04-06T04:50:09;14.90;;;13.60;;
4508;SDS011;2267;48.816;9.230;2023-04-06T04:52:37;13.87;;;12.57;;
4508;SDS011;2267;48.816;9.230;2023-04-06T04:55:04;14.97;;;13.47;;
4508;SDS011;2267;48.816;9.230;2023-04-06T04:57:31;14.67;;;13.37;;
4508;SDS011;2267;48.816;9.230;2023-04-06T04:59:58;14.73;;;13.03;;
4508;SDS011;2267;48.816;9.230;2023-04-06T05:02:24;15.10;;;13.70;;
4508;SDS011;2267;48.816;9.230;2023-04-06T05:04:52;15.57;;;14.17;;
4508;SDS011;2267;48.816;9.230;2023-04-06T05:07:19;14.77;;;13.30;;
4508;SDS011;2267;48.816;9.230;2023-04-06T05:09:46;15.67;;;13.50;;
4508;SDS011;2267;48.816;9.230;2023-04-06T05:12:13;15.70;;;14.10;;
4508;SDS011;2267;48.816;9.230;2023-04-06T05:14:41;15.27;;;13.77;;
4508;SDS011;2267;48.816;9.230;2023-04-06T05:17:08;15.83;;;14.27;;
4508;SDS011;2267;48.816;9.230;2023-04-06T05:19:35;15.60;;;14.40;;
4508;SDS011;2267;48.816;9.230;2023-04-06T05:22:02;14.93;;;13.53;;
4508;SDS011;2267;48.816;9.230;2023-04-06T05:24:28;16.73;;;15.10;;
4508;SDS011;2267;48.816;9.230;2023-04-06T05:26:55;15.90;;;14.20;;
4508;SDS011;2267;48.816;9.230;2023-04-06T05:29:22;16.53;;;14.83;;
4508;SDS011;2267;48.816;9.230;2023-04-06T05:31:50;15.47;;;13.80;;
4508;SDS011;2267;48.816;9.230;2023-04-06T05:34:17;16.97;;;15.43;;
4508;SDS011;2267;48.816;9.230;2023-04-06T05:36:44;15.23;;;13.93;;
4508;SDS011;2267;48.816;9.230;2023-04-06T05:39:11;16.90;;;14.43;;
4508;SDS011;2267;48.816;9.230;2023-04-06T05:41:38;16.83;;;15.20;;
4508;SDS011;2267;48.816;9.230;2023-04-06T05:44:06;17.40;;;15.87;;
4508;SDS011;2267;48.816;9.230;2023-04-06T05:46:32;18.10;;;16.40;;
4508;SDS011;2267;48.816;9.230;2023-04-06T05:48:59;16.13;;;14.67;;
4508;SDS011;2267;48.816;9.230;2023-04-06T05:51:26;16.30;;;14.70;;
4508;SDS011;2267;48.816;9.230;2023-04-06T05:53:53;17.03;;;15.30;;
4508;SDS011;2267;48.816;9.230;2023-04-06T05:56:20;18.00;;;16.10;;
4508;SDS011;2267;48.816;9.230;2023-04-06T05:58:47;17.77;;;16.10;;
4508;SDS011;2267;48.816;9.230;2023-04-06T06:01:14;17.00;;;15.30;;
4508;SDS011;2267;48.816;9.230;2023-04-06T06:03:41;16.57;;;14.93;;
4508;SDS011;2267;48.816;9.230;2023-04-06T06:06:08;15.80;;;14.40;;
4508;SDS011;2267;48.816;9.230;2023-04-06T06:08:35;19.03;;;14.93;;
4508;SDS011;2267;48.816;9.230;2023-04-06T06:11:02;15.03;;;13.63;;
4508;SDS011;2267;48.816;9.230;2023-04-06T06:13:29;15.40;;;14.20;;
4508;SDS011;2267;48.816;9.230;2023-04-06T06:15:56;16.50;;;15.00;;
4508;SDS011;2267;48.816;9.230;2023-04-06T06:18:23;16.77;;;14.53;;
4508;SDS011;2267;48.816;9.230;2023-04-06T06:20:50;16.43;;;14.97;;
4508;SDS011;2267;48.816;9.230;2023-04-06T06:23:17;16.57;;;14.97;;
4508;SDS011;2267;48.816;9.230;2023-04-06T06:25:44;15.97;;;14.57;;
4508;SDS011;2267;48.816;9.230;2023-04-06T06:28:11;16.67;;;15.07;;
4508;SDS011;2267;48.816;9.230;2023-04-06T06:30:38;17.23;;;15.70;;
4508;SDS011;2267;48.816;9.230;2023-04-06T06:33:05;16.27;;;14.80;;
4508;SDS011;2267;48.816;9.230;2023-04-06T06:35:32;16.67;;;15.23;;
4508;SDS011;2267;48.816;9.230;2023-04-06T06:37:59;16.40;;;15.00;;
4508;SDS011;2267;48.816;9.230;2023-04-06T06:40:25;16.87;;;15.40;;
4508;SDS011;2267;48.816;9.230;2023-04-06T06:42:53;16.23;;;14.93;;
4508;SDS011;2267;48.816;9.230;2023-04-06T06:45:20;16.27;;;14.77;;
4508;SDS011;2267;48.816;9.230;2023-04-06T06:47:47;15.33;;;14.13;;
4508;SDS011;2267;48.816;9.230;2023-04-06T06:50:14;14.33;;;13.13;;
4508;SDS011;2267;48.816;9.230;2023-04-06T06:52:41;14.03;;;12.73;;
4508;SDS011;2267;48.816;9.230;2023-04-06T06:55:09;16.63;;;14.27;;
4508;SDS011;2267;48.816;9.230;2023-04-06T06:57:37;14.23;;;13.13;;
4508;SDS011;2267;48.816;9.230;2023-04-06T07:00:05;15.80;;;14.40;;
4508;SDS011;2267;48.816;9.230;2023-04-06T07:02:33;14.60;;;13.30;;
4508;SDS011;2267;48.816;9.230;2023-04-06T07:05:02;13.67;;;12.57;;
4508;SDS011;2267;48.816;9.230;2023-04-06T07:07:50;14.80;;;13.43;;
4508;SDS011;2267;48.816;9.230;2023-04-06T07:10:16;13.97;;;12.80;;
4508;SDS011;2267;48.816;9.230;2023-04-06T07:12:43;14.00;;;12.77;;
4508;SDS011;2267;48.816;9.230;2023-04-06T07:15:10;15.20;;;14.00;;
4508;SDS011;2267;48.816;9.230;2023-04-06T07:17:37;13.47;;;12.47;;
4508;SDS011;2267;48.816;9.230;2023-04-06T07:20:04;14.00;;;12.70;;
4508;SDS011;2267;48.816;9.230;2023-04-06T07:22:32;14.20;;;13.07;;
4508;SDS011;2267;48.816;9.230;2023-04-06T07:24:59;13.40;;;12.30;;
4508;SDS011;2267;48.816;9.230;2023-04-06T07:27:25;13.70;;;12.60;;
4508;SDS011;2267;48.816;9.230;2023-04-06T07:29:52;14.17;;;12.90;;
4508;SDS011;2267;48.816;9.230;2023-04-06T07:32:19;14.83;;;13.63;;
4508;SDS011;2267;48.816;9.230;2023-04-06T07:34:46;15.20;;;13.80;;
4508;SDS011;2267;48.816;9.230;2023-04-06T07:37:13;14.00;;;12.80;;
4508;SDS011;2267;48.816;9.230;2023-04-06T07:39:40;14.40;;;13.17;;
4508;SDS011;2267;48.816;9.230;2023-04-06T07:42:07;14.30;;;13.10;;
4508;SDS011;2267;48.816;9.230;2023-04-06T07:44:33;13.87;;;12.67;;
4508;SDS011;2267;48.816;9.230;2023-04-06T07:47:00;14.40;;;12.30;;
4508;SDS011;2267;48.816;9.230;2023-04-06T07:49:27;15.90;;;14.40;;
4508;SDS011;2267;48.816;9.230;2023-04-06T07:51:54;14.00;;;12.80;;
4508;SDS011;2267;48.816;9.230;2023-04-06T07:54:22;14.53;;;13.23;;
4508;SDS011;2267;48.816;9.230;2023-04-06T07:56:48;15.77;;;14.40;;
4508;SDS011;2267;48.816;9.230;2023-04-06T07:59:15;14.17;;;12.90;;
4508;SDS011;2267;48.816;9.230;2023-04-06T08:01:42;13.97;;;12.77;;
4508;SDS011;2267;48.816;9.230;2023-04-06T08:04:09;14.13;;;12.93;;
4508;SDS011;2267;48.816;9.230;2023-04-06T08:06:36;14.20;;;13.10;;
4508;SDS011;2267;48.816;9.230;2023-04-06T08:09:03;14.87;;;13.57;;
4508;SDS011;2267;48.816;9.230;2023-04-06T08:11:30;16.07;;;14.67;;
4508;SDS011;2267;48.816;9.230;2023-04-06T08:13:57;13.97;;;12.77;;
4508;SDS011;2267;48.816;9.230;2023-04-06T08:16:24;14.73;;;13.27;;
4508;SDS011;2267;48.816;9.230;2023-04-06T08:18:51;13.50;;;12.40;;
4508;SDS011;2267;48.816;9.230;2023-04-06T08:21:18;13.97;;;12.73;;
4508;SDS011;2267;48.816;9.230;2023-04-06T08:23:45;15.07;;;13.87;;
4508;SDS011;2267;48.816;9.230;2023-04-06T08:26:12;14.87;;;13.57;;
4508;SDS011;2267;48.816;9.230;2023-04-06T08:28:39;15.40;;;13.97;;
4508;SDS011;2267;48.816;9.230;2023-04-06T08:31:06;15.57;;;14.20;;
4508;SDS011;2267;48.816;9.230;2023-04-06T08:33:33;14.43;;;13.33;;
4508;SDS011;2267;48.816;9.230;2023-04-06T08:36:11;14.60;;;13.13;;
4508;SDS011;2267;48.816;9.230;2023-04-06T08:38:40;14.30;;;13.10;;
4508;SDS011;2267;48.816;9.230;2023-04-06T08:41:08;15.30;;;14.00;;
4508;SDS011;2267;48.816;9.230;2023-04-06T08:43:58;13.60;;;12.50;;
4508;SDS011;2267;48.816;9.230;2023-04-06T08:46:26;15.83;;;14.50;;
4508;SDS011;2267;48.816;9.230;2023-04-06T08:48:58;15.27;;;14.07;;
4508;SDS011;2267;48.816;9.230;2023-04-06T08:51:28;12.80;;;11.70;;
4508;SDS011;2267;48.816;9.230;2023-04-06T08:53:57;13.90;;;12.80;;
4508;SDS011;2267;48.816;9.230;2023-04-06T08:56:25;14.23;;;12.93;;
4508;SDS011;2267;48.816;9.230;2023-04-06T08:58:53;12.50;;;11.40;;
4508;SDS011;2267;48.816;9.230;2023-04-06T09:01:22;14.03;;;12.73;;
4508;SDS011;2267;48.816;9.230;2023-04-06T09:03:55;13.47;;;11.50;;
4508;SDS011;2267;48.816;9.230;2023-04-06T09:06:24;13.57;;;12.47;;
4508;SDS011;2267;48.816;9.230;2023-04-06T09:08:54;12.73;;;11.50;;
4508;SDS011;2267;48.816;9.230;2023-04-06T09:11:21;12.07;;;11.07;;
4508;SDS011;2267;48.816;9.230;2023-04-06T09:13:52;12.87;;;11.77;;
4508;SDS011;2267;48.816;9.230;2023-04-06T09:16:24;13.60;;;12.30;;
4508;SDS011;2267;48.816;9.230;2023-04-06T09:18:52;12.30;;;11.10;;
4508;SDS011;2267;48.816;9.230;2023-04-06T09:21:19;13.63;;;12.40;;
4508;SDS011;2267;48.816;9.230;2023-04-06T09:24:00;13.47;;;12.37;;
4508;SDS011;2267;48.816;9.230;2023-04-06T09:26:28;12.90;;;11.80;;
4508;SDS011;2267;48.816;9.230;2023-04-06T09:28:57;12.47;;;11.27;;
4508;SDS011;2267;48.816;9.230;2023-04-06T09:31:28;13.53;;;12.33;;
4508;SDS011;2267;48.816;9.230;2023-04-06T09:33:59;13.90;;;12.70;;
4508;SDS011;2267;48.816;9.230;2023-04-06T09:36:33;13.37;;;12.27;;
4508;SDS011;2267;48.816;9.230;2023-04-06T09:39:02;14.60;;;13.30;;
4508;SDS011;2267;48.816;9.230;2023-04-06T09:41:31;12.80;;;11.70;;
4508;SDS011;2267;48.816;9.230;2023-04-06T09:46:37;12.17;;;11.07;;
4508;SDS011;2267;48.816;9.230;2023-04-06T09:49:23;9.30;;;8.50;;
4508;SDS011;2267;48.816;9.230;2023-04-06T09:51:53;11.30;;;10.30;;
4508;SDS011;2267;48.816;9.230;2023-04-06T09:54:26;11.00;;;10.00;;
4508;SDS011;2267;48.816;9.230;2023-04-06T10:00:01;8.97;;;8.17;;
4508;SDS011;2267;48.816;9.230;2023-04-06T10:03:00;9.90;;;9.00;;
4508;SDS011;2267;48.816;9.230;2023-04-06T10:05:43;10.70;;;9.80;;
4508;SDS011;2267;48.816;9.230;2023-04-06T10:08:16;11.03;;;9.43;;
4508;SDS011;2267;48.816;9.230;2023-04-06T10:10:45;10.40;;;9.50;;
4508;SDS011;2267;48.816;9.230;2023-04-06T10:13:13;10.87;;;9.97;;
4508;SDS011;2267;48.816;9.230;2023-04-06T10:15:39;11.23;;;10.23;;
4508;SDS011;2267;48.816;9.230;2023-04-06T10:18:07;12.50;;;11.37;;
4508;SDS011;2267;48.816;9.230;2023-04-06T10:23:15;9.67;;;8.83;;
4508;SDS011;2267;48.816;9.230;2023-04-06T10:25:56;9.13;;;8.33;;
4508;SDS011;2267;48.816;9.230;2023-04-06T10:28:24;15.53;;;11.57;;
4508;SDS011;2267;48.816;9.230;2023-04-06T10:30:56;11.20;;;10.30;;
4508;SDS011;2267;48.816;9.230;2023-04-06T10:33:25;11.37;;;10.43;;
4508;SDS011;2267;48.816;9.230;2023-04-06T10:35:52;9.67;;;8.87;;
4508;SDS011;2267;48.816;9.230;2023-04-06T10:38:19;10.27;;;9.37;;
4508;SDS011;2267;48.816;9.230;2023-04-06T10:40:48;9.90;;;9.10;;
4508;SDS011;2267;48.816;9.230;2023-04-06T10:43:19;10.40;;;9.50;;
4508;SDS011;2267;48.816;9.230;2023-04-06T10:45:57;8.87;;;8.00;;
4508;SDS011;2267;48.816;9.230;2023-04-06T10:48:36;9.00;;;8.20;;
4508;SDS011;2267;48.816;9.230;2023-04-06T10:51:11;9.63;;;8.73;;
4508;SDS011;2267;48.816;9.230;2023-04-06T10:53:42;9.50;;;8.53;;
4508;SDS011;2267;48.816;9.230;2023-04-06T10:56:16;9.10;;;8.30;;
4508;SDS011;2267;48.816;9.230;2023-04-06T10:58:51;8.83;;;8.13;;
4508;SDS011;2267;48.816;9.230;2023-04-06T11:01:22;8.80;;;8.00;;
4508;SDS011;2267;48.816;9.230;2023-04-06T11:03:52;10.57;;;9.60;;
4508;SDS011;2267;48.816;9.230;2023-04-06T11:06:26;9.93;;;9.03;;
4508;SDS011;2267;48.816;9.230;2023-04-06T11:08:55;8.90;;;8.10;;
4508;SDS011;2267;48.816;9.230;2023-04-06T11:11:23;10.10;;;9.20;;
4508;SDS011;2267;48.816;9.230;2023-04-06T11:16:22;13.03;;;9.70;;
4508;SDS011;2267;48.816;9.230;2023-04-06T11:19:10;9.20;;;8.47;;
4508;SDS011;2267;48.816;9.230;2023-04-06T11:21:42;8.23;;;7.53;;
4508;SDS011;2267;48.816;9.230;2023-04-06T11:24:10;9.03;;;8.23;;
4508;SDS011;2267;48.816;9.230;2023-04-06T11:26:42;9.20;;;8.40;;
4508;SDS011;2267;48.816;9.230;2023-04-06T11:29:10;8.50;;;7.80;;
4508;SDS011;2267;48.816;9.230;2023-04-06T11:31:45;8.60;;;7.90;;
4508;SDS011;2267;48.816;9.230;2023-04-06T11:34:22;7.43;;;6.83;;
4508;SDS011;2267;48.816;9.230;2023-04-06T11:36:54;8.57;;;7.87;;
4508;SDS011;2267;48.816;9.230;2023-04-06T11:39:26;7.37;;;6.77;;
4508;SDS011;2267;48.816;9.230;2023-04-06T11:41:57;8.30;;;7.43;;
4508;SDS011;2267;48.816;9.230;2023-04-06T11:47:01;7.93;;;7.23;;
4508;SDS011;2267;48.816;9.230;2023-04-06T11:49:29;7.50;;;6.90;;
4508;SDS011;2267;48.816;9.230;2023-04-06T11:51:57;6.47;;;5.97;;
4508;SDS011;2267;48.816;9.230;2023-04-06T11:54:32;7.83;;;7.23;;
4508;SDS011;2267;48.816;9.230;2023-04-06T11:57:01;7.83;;;7.13;;
4508;SDS011;2267;48.816;9.230;2023-04-06T11:59:29;7.40;;;6.80;;
4508;SDS011;2267;48.816;9.230;2023-04-06T12:01:59;8.30;;;7.60;;
4508;SDS011;2267;48.816;9.230;2023-04-06T12:04:27;7.70;;;7.10;;
4508;SDS011;2267;48.816;9.230;2023-04-06T12:06:54;7.87;;;7.17;;
4508;SDS011;2267;48.816;9.230;2023-04-06T12:09:21;8.10;;;7.10;;
4508;SDS011;2267;48.816;9.230;2023-04-06T12:11:48;7.40;;;6.80;;
4508;SDS011;2267;48.816;9.230;2023-04-06T12:14:15;7.27;;;6.67;;
4508;SDS011;2267;48.816;9.230;2023-04-06T12:16:42;7.13;;;6.63;;
4508;SDS011;2267;48.816;9.230;2023-04-06T12:19:10;6.77;;;6.23;;
4508;SDS011;2267;48.816;9.230;2023-04-06T12:21:37;7.67;;;6.90;;
4508;SDS011;2267;48.816;9.230;2023-04-06T12:24:04;6.40;;;5.90;;
4508;SDS011;2267;48.816;9.230;2023-04-06T12:26:32;10.33;;;6.50;;
4508;SDS011;2267;48.816;9.230;2023-04-06T12:28:59;8.00;;;7.30;;
4508;SDS011;2267;48.816;9.230;2023-04-06T12:31:44;6.60;;;6.00;;
4508;SDS011;2267;48.816;9.230;2023-04-06T12:34:11;7.37;;;6.77;;
4508;SDS011;2267;48.816;9.230;2023-04-06T12:36:38;6.77;;;6.13;;
4508;SDS011;2267;48.816;9.230;2023-04-06T12:39:05;7.90;;;7.10;;
4508;SDS011;2267;48.816;9.230;2023-04-06T12:41:32;6.30;;;5.80;;
4508;SDS011;2267;48.816;9.230;2023-04-06T12:44:00;6.97;;;6.37;;
4508;SDS011;2267;48.816;9.230;2023-04-06T12:46:28;8.00;;;7.30;;
4508;SDS011;2267;48.816;9.230;2023-04-06T12:48:58;7.67;;;6.87;;
4508;SDS011;2267;48.816;9.230;2023-04-06T12:51:29;8.50;;;7.70;;
4508;SDS011;2267;48.816;9.230;2023-04-06T12:53:57;7.57;;;6.97;;
4508;SDS011;2267;48.816;9.230;2023-04-06T12:56:24;7.23;;;6.53;;
4508;SDS011;2267;48.816;9.230;2023-04-06T12:58:51;7.03;;;6.33;;
4508;SDS011;2267;48.816;9.230;2023-04-06T13:01:19;12.20;;;8.27;;
4508;SDS011;2267;48.816;9.230;2023-04-06T13:03:46;8.63;;;7.73;;
4508;SDS011;2267;48.816;9.230;2023-04-06T13:06:13;8.20;;;7.50;;
4508;SDS011;2267;48.816;9.230;2023-04-06T13:08:41;11.37;;;8.10;;
4508;SDS011;2267;48.816;9.230;2023-04-06T13:11:09;7.20;;;6.50;;
4508;SDS011;2267;48.816;9.230;2023-04-06T13:13:36;6.70;;;6.10;;
4508;SDS011;2267;48.816;9.230;2023-04-06T13:16:04;7.90;;;7.20;;
4508;SDS011;2267;48.816;9.230;2023-04-06T13:18:34;8.50;;;7.80;;
4508;SDS011;2267;48.816;9.230;2023-04-06T13:21:02;8.20;;;7.50;;
4508;SDS011;2267;48.816;9.230;2023-04-06T13:23:30;6.50;;;5.87;;
4508;SDS011;2267;48.816;9.230;2023-04-06T13:25:58;6.67;;;6.13;;
4508;SDS011;2267;48.816;9.230;2023-04-06T13:28:27;7.77;;;6.83;;
4508;SDS011;2267;48.816;9.230;2023-04-06T13:30:54;8.50;;;7.27;;
4508;SDS011;2267;48.816;9.230;2023-04-06T13:33:21;6.83;;;6.23;;
4508;SDS011;2267;48.816;9.230;2023-04-06T13:35:48;6.73;;;6.23;;
4508;SDS011;2267;48.816;9.230;2023-04-06T13:38:15;7.87;;;7.13;;
4508;SDS011;2267;48.816;9.230;2023-04-06T13:40:42;8.50;;;7.80;;
4508;SDS011;2267;48.816;9.230;2023-04-06T13:43:10;10.33;;;7.00;;
4508;SDS011;2267;48.816;9.230;2023-04-06T13:45:37;8.10;;;7.40;;
4508;SDS011;2267;48.816;9.230;2023-04-06T13:48:04;7.90;;;7.20;;
4508;SDS011;2267;48.816;9.230;2023-04-06T13:50:32;12.33;;;7.83;;
4508;SDS011;2267;48.816;9.230;2023-04-06T13:52:59;7.83;;;7.10;;
4508;SDS011;2267;48.816;9.230;2023-04-06T13:55:26;11.90;;;8.33;;
4508;SDS011;2267;48.816;9.230;2023-04-06T13:57:53;15.37;;;9.13;;
4508;SDS011;2267;48.816;9.230;2023-04-06T14:00:21;7.80;;;7.10;;
4508;SDS011;2267;48.816;9.230;2023-04-06T14:02:48;7.33;;;6.70;;
4508;SDS011;2267;48.816;9.230;2023-04-06T14:05:15;8.10;;;7.30;;
4508;SDS011;2267;48.816;9.230;2023-04-06T14:07:42;8.17;;;7.37;;
4508;SDS011;2267;48.816;9.230;2023-04-06T14:10:08;7.53;;;6.40;;
4508;SDS011;2267;48.816;9.230;2023-04-06T14:12:43;9.10;;;7.60;;
4508;SDS011;2267;48.816;9.230;2023-04-06T14:15:11;6.87;;;6.27;;
4508;SDS011;2267;48.816;9.230;2023-04-06T14:17:38;8.07;;;7.30;;
4508;SDS011;2267;48.816;9.230;2023-04-06T14:20:05;8.33;;;7.53;;
4508;SDS011;2267;48.816;9.230;2023-04-06T14:22:33;9.03;;;6.87;;
4508;SDS011;2267;48.816;9.230;2023-04-06T14:25:00;8.43;;;7.73;;
4508;SDS011;2267;48.816;9.230;2023-04-06T14:27:27;6.90;;;6.30;;
4508;SDS011;2267;48.816;9.230;2023-04-06T14:29:54;12.43;;;7.27;;
4508;SDS011;2267;48.816;9.230;2023-04-06T14:32:21;6.57;;;6.00;;
4508;SDS011;2267;48.816;9.230;2023-04-06T14:34:48;7.80;;;7.00;;
4508;SDS011;2267;48.816;9.230;2023-04-06T14:37:15;8.47;;;7.77;;
4508;SDS011;2267;48.816;9.230;2023-04-06T14:39:43;7.10;;;6.47;;
4508;SDS011;2267;48.816;9.230;2023-04-06T14:42:10;14.93;;;6.77;;
4508;SDS011;2267;48.816;9.230;2023-04-06T14:44:37;8.30;;;7.60;;
4508;SDS011;2267;48.816;9.230;2023-04-06T14:47:09;8.43;;;7.63;;
4508;SDS011;2267;48.816;9.230;2023-04-06T14:49:36;7.40;;;6.73;;
4508;SDS011;2267;48.816;9.230;2023-04-06T14:52:04;7.67;;;6.97;;
4508;SDS011;2267;48.816;9.230;2023-04-06T14:54:30;10.70;;;7.23;;
4508;SDS011;2267;48.816;9.230;2023-04-06T14:56:57;7.53;;;6.63;;
4508;SDS011;2267;48.816;9.230;2023-04-06T14:59:24;12.50;;;6.80;;
4508;SDS011;2267;48.816;9.230;2023-04-06T15:01:51;7.60;;;6.90;;
4508;SDS011;2267;48.816;9.230;2023-04-06T15:04:18;7.40;;;6.60;;
4508;SDS011;2267;48.816;9.230;2023-04-06T15:06:45;7.17;;;6.47;;
4508;SDS011;2267;48.816;9.230;2023-04-06T15:09:11;7.80;;;7.10;;
4508;SDS011;2267;48.816;9.230;2023-04-06T15:11:38;7.43;;;6.83;;
4508;SDS011;2267;48.816;9.230;2023-04-06T15:14:05;7.80;;;7.00;;